Time;durP1;ratioP1;P1;durP2;ratioP2;P2;SDS_P1;SDS_P2;PMS_P1;PMS_P2;Temp;Humidity;BMP_temperature;BMP_pressure;BME280_temperature;BME280_humidity;BME280_pressure;Samples;Min_cycle;Max_cycle;Signal;HPM_P1;HPM_P2
2022/10/26 00:00:01;;;;;;;;;;;17.90;99.90;;;;;;5116271;28;20004;-87
2022/10/26 00:02:27;;;;;;;;;;;17.90;99.90;;;;;;5116069;28;20265;-87
2022/10/26 00:09:55;;;;;;;;;;;17.90;99.90;;;;;;5088792;28;19924;-10
2022/10/26 00:12:21;;;;;;;;;;;17.90;99.90;;;;;;5091361;28;19908;-10
2022/10/26 00:14:46;;;;;;;;;;;17.90;99.90;;;;;;5091511;28;19908;-10
2022/10/26 00:17:12;;;;;;;;;;;17.90;99.90;;;;;;5093364;28;20047;-10
2022/10/26 00:19:38;;;;;;;;;;;17.90;99.90;;;;;;5092928;28;19918;-10
2022/10/26 00:22:03;;;;;;;;;;;17.90;99.90;;;;;;5094696;28;19961;-10
2022/10/26 00:24:29;;;;;;;;;;;17.90;99.90;;;;;;5095458;28;19908;-10
2022/10/26 00:26:54;;;;;;;;;;;17.90;99.90;;;;;;5094708;28;19935;-10
2022/10/26 00:29:23;;;;;;;;;;;17.90;99.90;;;;;;5095343;28;20269;-10
2022/10/26 00:31:48;;;;;;;;;;;17.90;99.90;;;;;;5095351;28;19908;-10
2022/10/26 00:34:14;;;;;;;;;;;17.90;99.90;;;;;;5094341;28;19908;-10
2022/10/26 00:36:40;;;;;;;;;;;17.90;99.90;;;;;;5096425;28;20328;-10
2022/10/26 00:39:08;;;;;;;;;;;17.90;99.90;;;;;;5095068;28;19922;-10
2022/10/26 00:41:34;;;;;;;;;;;17.90;99.90;;;;;;5096228;28;19912;-10
2022/10/26 00:44:00;;;;;;;;;;;17.90;99.90;;;;;;5096560;28;19908;-10
2022/10/26 00:46:34;;;;;;;;;;;17.90;99.90;;;;;;5097878;28;20193;-10
2022/10/26 00:49:05;;;;;;;;;;;17.90;99.90;;;;;;5097051;28;19919;-10
2022/10/26 00:51:32;;;;;;;;;;;17.90;99.90;;;;;;5096294;28;19995;-10
2022/10/26 00:54:03;;;;;;;;;;;17.90;99.90;;;;;;5095495;28;19956;-10
2022/10/26 00:56:29;;;;;;;;;;;17.90;99.90;;;;;;5092958;28;20088;-10
2022/10/26 00:58:58;;;;;;;;;;;17.90;99.90;;;;;;5094214;28;19925;-10
2022/10/26 01:01:24;;;;;;;;;;;17.90;99.90;;;;;;5093633;28;20250;-10
2022/10/26 01:03:53;;;;;;;;;;;17.90;99.90;;;;;;5093828;28;20047;-10
2022/10/26 01:06:19;;;;;;;;;;;17.80;99.90;;;;;;5093911;28;20013;-10
2022/10/26 01:08:45;;;;;;;;;;;17.90;99.90;;;;;;5092869;28;20024;-10
2022/10/26 01:11:11;;;;;;;;;;;17.90;99.90;;;;;;5094937;28;20001;-10
2022/10/26 01:13:36;;;;;;;;;;;17.90;99.90;;;;;;5093164;28;20329;-10
2022/10/26 01:16:14;;;;;;;;;;;17.80;99.90;;;;;;5093678;28;20289;-10
2022/10/26 01:18:58;;;;;;;;;;;17.80;99.90;;;;;;5095960;28;19912;-10
2022/10/26 01:21:30;;;;;;;;;;;17.90;99.90;;;;;;5096094;28;19973;-10
2022/10/26 01:24:02;;;;;;;;;;;17.80;99.90;;;;;;5095691;28;19938;-10
2022/10/26 01:26:45;;;;;;;;;;;17.80;99.90;;;;;;5094948;28;19935;-10
2022/10/26 01:29:22;;;;;;;;;;;17.80;99.90;;;;;;5094526;28;19912;-10
2022/10/26 01:31:58;;;;;;;;;;;17.80;99.90;;;;;;5091416;28;20003;-10
2022/10/26 01:34:31;;;;;;;;;;;17.80;99.90;;;;;;5092736;28;20300;-10
2022/10/26 01:36:59;;;;;;;;;;;17.80;99.90;;;;;;5093318;28;19916;-10
2022/10/26 01:40:06;;;;;;;;;;;17.80;99.90;;;;;;5090908;28;19912;-10
2022/10/26 01:42:32;;;;;;;;;;;17.80;99.90;;;;;;5008779;28;19949;-10
2022/10/26 01:45:06;;;;;;;;;;;17.80;99.90;;;;;;4991662;28;19919;-10
2022/10/26 01:47:33;;;;;;;;;;;17.80;99.90;;;;;;5053384;28;20269;-10
2022/10/26 01:50:00;;;;;;;;;;;17.80;99.90;;;;;;5092361;28;19936;-10
2022/10/26 01:52:26;;;;;;;;;;;17.80;99.90;;;;;;5093065;28;19951;-10
2022/10/26 01:54:59;;;;;;;;;;;17.80;99.90;;;;;;5094753;28;20354;-10
2022/10/26 01:57:25;;;;;;;;;;;17.80;99.90;;;;;;5095321;28;19909;-10
2022/10/26 02:00:00;;;;;;;;;;;17.80;99.90;;;;;;5095943;28;20178;-10
2022/10/26 02:02:41;;;;;;;;;;;17.80;99.90;;;;;;5094778;28;20223;-10
2022/10/26 02:05:26;;;;;;;;;;;17.80;99.90;;;;;;5095207;28;19908;-10
2022/10/26 02:08:33;;;;;;;;;;;17.80;99.90;;;;;;5094208;28;19912;-10
2022/10/26 02:11:20;;;;;;;;;;;17.80;99.90;;;;;;5012843;28;19920;-10
2022/10/26 02:13:46;;;;;;;;;;;17.80;99.90;;;;;;4996746;28;19996;-10
2022/10/26 02:16:27;;;;;;;;;;;17.80;99.90;;;;;;5064226;28;20266;-10
2022/10/26 02:18:58;;;;;;;;;;;17.80;99.90;;;;;;5095956;28;19912;-10
2022/10/26 02:21:26;;;;;;;;;;;17.80;99.90;;;;;;5094658;28;19930;-10
2022/10/26 02:23:56;;;;;;;;;;;17.80;99.90;;;;;;5094794;28;19908;-10
2022/10/26 02:26:24;;;;;;;;;;;17.80;99.90;;;;;;5094445;28;20346;-10
2022/10/26 02:29:11;;;;;;;;;;;17.80;99.90;;;;;;5094534;28;19908;-10
2022/10/26 02:31:37;;;;;;;;;;;17.80;99.90;;;;;;5095562;28;19918;-10
2022/10/26 02:34:06;;;;;;;;;;;17.80;99.90;;;;;;5094165;28;20004;-10
2022/10/26 02:36:40;;;;;;;;;;;17.80;99.90;;;;;;5095260;28;19915;-10
2022/10/26 02:39:08;;;;;;;;;;;17.80;99.90;;;;;;5093576;28;19912;-11
2022/10/26 02:41:33;;;;;;;;;;;17.80;99.90;;;;;;5094922;28;19908;-11
2022/10/26 02:44:19;;;;;;;;;;;17.80;99.90;;;;;;5093921;28;19954;-11
2022/10/26 02:46:45;;;;;;;;;;;17.80;99.90;;;;;;5093345;28;19908;-11
2022/10/26 02:49:11;;;;;;;;;;;17.80;99.90;;;;;;5094639;28;19923;-11
2022/10/26 02:51:52;;;;;;;;;;;17.80;99.90;;;;;;5095154;28;19934;-11
2022/10/26 02:54:17;;;;;;;;;;;17.80;99.90;;;;;;5093901;28;20102;-11
2022/10/26 02:56:56;;;;;;;;;;;17.80;99.90;;;;;;5095306;28;19999;-11
2022/10/26 02:59:26;;;;;;;;;;;17.80;99.90;;;;;;5098602;28;19912;-11
2022/10/26 03:01:52;;;;;;;;;;;17.80;99.90;;;;;;5099431;28;20000;-11
2022/10/26 03:04:18;;;;;;;;;;;17.80;99.90;;;;;;5098648;28;19908;-11
2022/10/26 03:06:53;;;;;;;;;;;17.90;99.90;;;;;;5097943;28;19961;-11
2022/10/26 03:09:18;;;;;;;;;;;17.90;99.90;;;;;;5098575;28;20262;-11
2022/10/26 03:11:44;;;;;;;;;;;17.90;99.90;;;;;;5097542;28;19908;-11
2022/10/26 03:14:09;;;;;;;;;;;17.90;99.90;;;;;;5096660;28;20392;-11
2022/10/26 03:16:35;;;;;;;;;;;17.90;99.90;;;;;;5095791;28;19916;-11
2022/10/26 03:19:03;;;;;;;;;;;17.90;99.90;;;;;;5096972;28;20344;-11
2022/10/26 03:21:28;;;;;;;;;;;17.90;99.90;;;;;;5097268;28;19908;-11
2022/10/26 03:23:54;;;;;;;;;;;17.90;99.90;;;;;;5097426;28;20008;-11
2022/10/26 03:26:20;;;;;;;;;;;17.90;99.90;;;;;;5098070;28;19935;-11
2022/10/26 03:28:45;;;;;;;;;;;17.90;99.90;;;;;;5097434;28;20357;-11
2022/10/26 03:31:11;;;;;;;;;;;17.90;99.90;;;;;;5096610;28;20118;-11
2022/10/26 03:33:37;;;;;;;;;;;17.90;99.90;;;;;;5097194;28;20091;-11
2022/10/26 03:36:03;;;;;;;;;;;17.90;99.90;;;;;;5094611;28;20003;-11
2022/10/26 03:38:28;;;;;;;;;;;17.90;99.90;;;;;;5094687;28;20109;-11
2022/10/26 03:40:54;;;;;;;;;;;17.90;99.90;;;;;;5092989;28;19914;-11
2022/10/26 03:43:19;;;;;;;;;;;17.80;99.90;;;;;;5096207;28;20024;-11
2022/10/26 03:45:45;;;;;;;;;;;17.90;99.90;;;;;;5094864;28;19913;-11
2022/10/26 03:48:11;;;;;;;;;;;17.90;99.90;;;;;;5094930;28;19912;-11
2022/10/26 03:50:37;;;;;;;;;;;17.90;99.90;;;;;;5097245;28;20013;-11
2022/10/26 03:53:14;;;;;;;;;;;17.80;99.90;;;;;;5096135;28;19908;-11
2022/10/26 03:55:42;;;;;;;;;;;17.90;99.90;;;;;;5096904;28;20010;-11
2022/10/26 03:58:08;;;;;;;;;;;17.90;99.90;;;;;;5095088;28;20071;-11
2022/10/26 04:00:34;;;;;;;;;;;17.90;99.90;;;;;;5096181;28;20434;-11
2022/10/26 04:02:59;;;;;;;;;;;17.80;99.90;;;;;;5094480;28;20002;-11
2022/10/26 04:05:25;;;;;;;;;;;17.90;99.90;;;;;;5095545;28;19918;-11
2022/10/26 04:07:52;;;;;;;;;;;17.90;99.90;;;;;;5095543;28;19934;-11
2022/10/26 04:10:18;;;;;;;;;;;17.90;99.90;;;;;;5094528;28;20002;-11
2022/10/26 04:12:46;;;;;;;;;;;17.90;99.90;;;;;;5093873;28;20009;-11
2022/10/26 04:15:14;;;;;;;;;;;17.90;99.90;;;;;;5094166;28;19923;-11
2022/10/26 04:17:40;;;;;;;;;;;17.90;99.90;;;;;;5095066;28;19908;-11
2022/10/26 04:20:06;;;;;;;;;;;17.90;99.90;;;;;;5093893;28;19938;-11
2022/10/26 04:22:35;;;;;;;;;;;17.90;99.90;;;;;;5093133;28;19912;-11
2022/10/26 04:25:03;;;;;;;;;;;17.90;99.90;;;;;;5091425;28;20307;-11
2022/10/26 04:27:28;;;;;;;;;;;17.90;99.90;;;;;;5092407;28;19919;-11
2022/10/26 04:29:54;;;;;;;;;;;17.90;99.90;;;;;;5092177;28;19908;-12
2022/10/26 04:32:19;;;;;;;;;;;17.90;99.90;;;;;;5093270;28;19908;-11
2022/10/26 04:34:45;;;;;;;;;;;17.90;99.90;;;;;;5091917;28;19908;-11
2022/10/26 04:37:17;;;;;;;;;;;17.90;99.90;;;;;;5092188;28;19908;-11
2022/10/26 04:39:42;;;;;;;;;;;17.90;99.90;;;;;;5090847;28;19912;-11
2022/10/26 04:42:08;;;;;;;;;;;17.90;99.90;;;;;;5091144;28;19950;-11
2022/10/26 04:44:33;;;;;;;;;;;17.90;99.90;;;;;;5090511;28;19967;-11
2022/10/26 04:47:00;;;;;;;;;;;17.90;99.90;;;;;;5091139;28;20293;-11
2022/10/26 04:49:25;;;;;;;;;;;17.90;99.90;;;;;;5091616;28;19908;-11
2022/10/26 04:51:51;;;;;;;;;;;18.00;99.90;;;;;;5091367;28;19919;-11
2022/10/26 04:54:17;;;;;;;;;;;17.90;99.90;;;;;;5091248;28;20184;-11
2022/10/26 04:56:42;;;;;;;;;;;18.00;99.90;;;;;;5091589;28;19932;-11
2022/10/26 04:59:08;;;;;;;;;;;18.00;99.90;;;;;;5090621;28;19912;-11
2022/10/26 05:01:36;;;;;;;;;;;18.00;99.90;;;;;;5109430;22;19928;-11
2022/10/26 05:04:02;;;;;;;;;;;18.00;99.90;;;;;;5113390;28;20385;-11
2022/10/26 05:06:31;;;;;;;;;;;17.90;99.90;;;;;;5111779;28;19907;-11
2022/10/26 05:08:59;;;;;;;;;;;17.90;99.90;;;;;;5113709;28;19922;-11
2022/10/26 05:11:24;;;;;;;;;;;18.00;99.90;;;;;;5112522;28;20177;-11
2022/10/26 05:13:50;;;;;;;;;;;18.00;99.90;;;;;;5111249;28;20292;-11
2022/10/26 05:16:16;;;;;;;;;;;18.00;99.90;;;;;;5111746;28;20212;-11
2022/10/26 05:18:41;;;;;;;;;;;18.00;99.90;;;;;;5110435;28;20200;-11
2022/10/26 05:21:07;;;;;;;;;;;18.00;99.90;;;;;;5116227;28;20173;-11
2022/10/26 05:23:32;;;;;;;;;;;18.00;99.90;;;;;;5118610;28;19912;-11
2022/10/26 05:25:58;;;;;;;;;;;18.00;99.90;;;;;;5118476;28;20006;-11
2022/10/26 05:28:23;;;;;;;;;;;18.00;99.90;;;;;;5117983;28;20391;-11
2022/10/26 05:30:51;;;;;;;;;;;17.90;99.90;;;;;;5118248;28;20281;-11
2022/10/26 05:33:24;;;;;;;;;;;18.00;99.90;;;;;;5117814;28;20326;-11
2022/10/26 05:35:52;;;;;;;;;;;18.00;99.90;;;;;;5117353;28;19908;-11
2022/10/26 05:38:18;;;;;;;;;;;18.00;99.90;;;;;;5116868;28;20227;-11
2022/10/26 05:40:50;;;;;;;;;;;18.00;99.90;;;;;;5117403;28;19907;-11
2022/10/26 05:43:16;;;;;;;;;;;18.00;99.90;;;;;;5115990;28;20106;-11
2022/10/26 05:45:45;;;;;;;;;;;18.00;99.90;;;;;;5115586;28;20060;-11
2022/10/26 05:48:13;;;;;;;;;;;18.00;99.90;;;;;;5115706;28;19919;-11
2022/10/26 05:50:39;;;;;;;;;;;18.00;99.90;;;;;;5108871;28;20073;-11
2022/10/26 05:53:04;;;;;;;;;;;18.00;99.90;;;;;;5107342;28;19908;-11
2022/10/26 05:55:33;;;;;;;;;;;18.00;99.90;;;;;;5105905;28;20008;-11
2022/10/26 05:57:58;;;;;;;;;;;18.00;99.90;;;;;;5108158;28;20193;-11
2022/10/26 06:00:26;;;;;;;;;;;18.00;99.90;;;;;;5106369;28;20342;-11
2022/10/26 06:03:09;;;;;;;;;;;18.00;99.90;;;;;;5103367;28;20034;-11
2022/10/26 06:05:55;;;;;;;;;;;18.00;99.90;;;;;;5112012;28;20447;-11
2022/10/26 06:08:22;;;;;;;;;;;18.00;99.90;;;;;;5115107;28;19972;-11
2022/10/26 06:10:48;;;;;;;;;;;18.00;99.90;;;;;;5116699;28;20018;-11
2022/10/26 06:13:14;;;;;;;;;;;18.00;99.90;;;;;;5117087;28;19987;-11
2022/10/26 06:15:55;;;;;;;;;;;18.00;99.90;;;;;;5117102;28;19919;-11
2022/10/26 06:18:34;;;;;;;;;;;18.00;99.90;;;;;;5114639;28;19976;-11
2022/10/26 06:21:00;;;;;;;;;;;18.00;99.90;;;;;;5116080;28;19912;-11
2022/10/26 06:23:41;;;;;;;;;;;18.00;99.90;;;;;;5115183;28;19981;-11
2022/10/26 06:26:24;;;;;;;;;;;18.00;99.90;;;;;;5109109;28;20282;-11
2022/10/26 06:29:02;;;;;;;;;;;18.00;99.90;;;;;;5100980;28;19909;-11
2022/10/26 06:31:28;;;;;;;;;;;18.00;99.90;;;;;;5098379;28;19908;-11
2022/10/26 06:33:58;;;;;;;;;;;18.00;99.90;;;;;;5095961;28;20003;-11
2022/10/26 06:36:28;;;;;;;;;;;18.00;99.90;;;;;;5110429;28;20002;-11
2022/10/26 06:39:17;;;;;;;;;;;18.10;99.90;;;;;;5102392;28;19912;-11
2022/10/26 06:41:43;;;;;;;;;;;18.00;99.90;;;;;;5110754;28;19911;-11
2022/10/26 06:44:17;;;;;;;;;;;18.10;99.90;;;;;;5114776;28;19907;-11
2022/10/26 06:46:50;;;;;;;;;;;18.00;99.90;;;;;;5096963;28;19927;-11
2022/10/26 06:49:35;;;;;;;;;;;18.00;99.90;;;;;;5096419;28;19912;-11
2022/10/26 06:52:03;;;;;;;;;;;18.00;99.90;;;;;;5106042;28;20212;-11
2022/10/26 06:54:48;;;;;;;;;;;18.00;99.90;;;;;;5106184;28;19916;-11
2022/10/26 06:57:14;;;;;;;;;;;18.10;99.90;;;;;;5115465;28;19908;-11
2022/10/26 06:59:46;;;;;;;;;;;18.00;99.90;;;;;;5114502;28;19968;-11
2022/10/26 07:02:13;;;;;;;;;;;18.10;99.90;;;;;;5097557;22;19928;-11
2022/10/26 07:04:39;;;;;;;;;;;18.10;99.90;;;;;;5076366;28;20007;-11
2022/10/26 07:07:04;;;;;;;;;;;18.10;99.90;;;;;;5076514;28;20032;-11
2022/10/26 07:09:35;;;;;;;;;;;18.10;99.90;;;;;;5076149;28;20314;-11
2022/10/26 07:12:04;;;;;;;;;;;18.10;99.90;;;;;;5094219;28;19908;-11
2022/10/26 07:14:29;;;;;;;;;;;18.10;99.90;;;;;;5096735;28;19908;-11
2022/10/26 07:16:55;;;;;;;;;;;18.10;99.90;;;;;;5097745;28;19916;-11
2022/10/26 07:19:27;;;;;;;;;;;18.20;99.90;;;;;;5090093;28;19983;-11
2022/10/26 07:21:56;;;;;;;;;;;18.20;99.90;;;;;;5075963;28;19909;-11
2022/10/26 07:24:22;;;;;;;;;;;18.20;99.90;;;;;;5076062;28;19908;-11
2022/10/26 07:26:48;;;;;;;;;;;18.20;99.90;;;;;;5076293;28;20373;-12
2022/10/26 07:29:15;;;;;;;;;;;18.20;99.90;;;;;;5076067;28;20436;-11
2022/10/26 07:31:40;;;;;;;;;;;18.20;99.90;;;;;;5041219;28;20350;-11
2022/10/26 07:34:06;;;;;;;;;;;18.20;99.90;;;;;;5075329;28;20003;-11
2022/10/26 07:36:31;;;;;;;;;;;18.30;99.90;;;;;;5075773;28;20417;-11
2022/10/26 07:38:58;;;;;;;;;;;18.30;99.90;;;;;;5074636;28;19997;-11
2022/10/26 07:41:23;;;;;;;;;;;18.30;99.90;;;;;;5074579;28;19908;-11
2022/10/26 07:43:49;;;;;;;;;;;18.30;99.90;;;;;;5076607;28;20332;-11
2022/10/26 07:46:15;;;;;;;;;;;18.40;99.90;;;;;;5079815;28;19916;-11
2022/10/26 07:48:41;;;;;;;;;;;18.40;99.90;;;;;;5079856;28;19919;-11
2022/10/26 07:51:13;;;;;;;;;;;18.50;99.90;;;;;;5061825;28;19908;-11
2022/10/26 07:53:38;;;;;;;;;;;18.60;99.90;;;;;;5079072;28;19916;-11
2022/10/26 07:56:07;;;;;;;;;;;18.80;99.90;;;;;;5079178;28;19920;-11
2022/10/26 07:58:33;;;;;;;;;;;19.10;99.90;;;;;;5062532;28;19931;-11
2022/10/26 08:01:04;;;;;;;;;;;19.40;99.90;;;;;;5079974;28;20167;-11
2022/10/26 08:03:30;;;;;;;;;;;20.40;99.90;;;;;;5080284;28;20003;-11
2022/10/26 08:05:56;;;;;;;;;;;20.80;98.20;;;;;;5078612;28;20065;-11
2022/10/26 08:08:22;;;;;;;;;;;20.70;97.80;;;;;;5078979;28;19951;-11
2022/10/26 08:10:47;;;;;;;;;;;20.50;98.10;;;;;;5079274;28;20323;-11
2022/10/26 08:13:16;;;;;;;;;;;20.30;98.50;;;;;;5078721;28;19915;-11
2022/10/26 08:15:42;;;;;;;;;;;20.30;98.60;;;;;;5070794;22;20516;-11
2022/10/26 08:18:07;;;;;;;;;;;20.50;98.50;;;;;;5088843;28;20076;-11
2022/10/26 08:20:36;;;;;;;;;;;20.50;98.10;;;;;;5072556;28;20221;-11
2022/10/26 08:23:05;;;;;;;;;;;20.50;98.10;;;;;;5090368;28;19908;-11
2022/10/26 08:25:31;;;;;;;;;;;20.40;98.20;;;;;;5073695;28;19908;-11
2022/10/26 08:28:01;;;;;;;;;;;21.40;96.50;;;;;;5094500;28;19919;-11
2022/10/26 08:30:30;;;;;;;;;;;22.20;94.70;;;;;;5098367;28;19999;-11
2022/10/26 08:33:00;;;;;;;;;;;23.70;90.70;;;;;;5080717;28;20104;-11
2022/10/26 08:35:25;;;;;;;;;;;24.90;82.70;;;;;;5080687;28;19912;-11
2022/10/26 08:37:52;;;;;;;;;;;24.20;80.60;;;;;;5080467;28;20279;-11
2022/10/26 08:40:18;;;;;;;;;;;23.30;85.30;;;;;;5097622;28;19912;-11
2022/10/26 08:42:46;;;;;;;;;;;22.70;89.60;;;;;;5078851;28;19966;-11
2022/10/26 08:45:32;;;;;;;;;;;23.30;90.00;;;;;;5098107;28;20274;-11
2022/10/26 08:48:03;;;;;;;;;;;24.20;84.00;;;;;;5080277;28;19908;-11
2022/10/26 08:50:36;;;;;;;;;;;25.40;76.40;;;;;;5097955;28;19916;-12
2022/10/26 08:53:06;;;;;;;;;;;26.20;71.40;;;;;;5098394;28;20417;-12
2022/10/26 08:55:52;;;;;;;;;;;26.60;67.80;;;;;;5080270;28;19915;-12
2022/10/26 08:58:21;;;;;;;;;;;26.70;65.70;;;;;;5080036;28;19908;-12
2022/10/26 09:00:48;;;;;;;;;;;25.40;68.20;;;;;;5098156;28;19916;-12
2022/10/26 09:03:14;;;;;;;;;;;24.20;74.20;;;;;;5097480;28;19971;-12
2022/10/26 09:05:56;;;;;;;;;;;23.60;79.20;;;;;;5079543;28;20018;-12
2022/10/26 09:08:30;;;;;;;;;;;23.10;83.00;;;;;;5093094;28;19919;-12
2022/10/26 09:11:03;;;;;;;;;;;24.40;79.70;;;;;;5097880;28;20280;-12
2022/10/26 09:13:50;;;;;;;;;;;25.60;73.20;;;;;;5097416;28;20304;-12
2022/10/26 09:16:35;;;;;;;;;;;26.30;68.70;;;;;;5080205;28;20089;-12
2022/10/26 09:19:01;;;;;;;;;;;26.70;65.50;;;;;;5079953;28;20327;-12
2022/10/26 09:21:29;;;;;;;;;;;27.00;63.60;;;;;;5096761;28;19943;-12
2022/10/26 09:24:00;;;;;;;;;;;26.90;62.60;;;;;;5095878;28;19935;-12
2022/10/26 09:26:50;;;;;;;;;;;26.50;63.00;;;;;;5095971;28;19975;-12
2022/10/26 09:29:17;;;;;;;;;;;26.10;63.50;;;;;;5059191;28;19907;-12
2022/10/26 09:31:44;;;;;;;;;;;25.50;65.10;;;;;;5109895;22;19924;-12
2022/10/26 09:34:24;;;;;;;;;;;25.00;67.30;;;;;;5106147;28;20131;-12
2022/10/26 09:36:52;;;;;;;;;;;24.50;70.00;;;;;;5106378;28;20084;-12
2022/10/26 09:39:41;;;;;;;;;;;24.00;73.70;;;;;;5109198;28;19927;-12
2022/10/26 09:42:20;;;;;;;;;;;23.60;76.90;;;;;;5107032;28;20007;-12
2022/10/26 09:45:06;;;;;;;;;;;23.10;81.00;;;;;;5103972;28;20066;-11
2022/10/26 09:47:31;;;;;;;;;;;22.70;84.70;;;;;;5094434;28;19930;-11
2022/10/26 09:50:00;;;;;;;;;;;22.40;87.90;;;;;;5106703;28;19907;-11
2022/10/26 09:52:26;;;;;;;;;;;22.10;90.00;;;;;;5106747;28;20059;-11
2022/10/26 09:54:52;;;;;;;;;;;21.90;91.10;;;;;;5109349;28;19918;-11
2022/10/26 09:57:18;;;;;;;;;;;21.60;92.00;;;;;;5107382;28;20410;-11
2022/10/26 09:59:49;;;;;;;;;;;21.50;92.80;;;;;;5108838;28;19989;-11
2022/10/26 10:02:33;;;;;;;;;;;21.40;93.40;;;;;;5108459;28;20269;-11
2022/10/26 10:04:59;;;;;;;;;;;21.30;93.80;;;;;;5107981;28;19915;-11
2022/10/26 10:07:28;;;;;;;;;;;21.30;94.20;;;;;;5107712;28;19908;-11
2022/10/26 10:10:12;;;;;;;;;;;21.20;94.50;;;;;;5107792;27;19915;-11
2022/10/26 10:12:38;;;;;;;;;;;21.10;94.80;;;;;;5105939;28;19930;-11
2022/10/26 10:15:04;;;;;;;;;;;21.10;95.00;;;;;;5106041;28;19912;-11
2022/10/26 10:17:29;;;;;;;;;;;21.10;95.20;;;;;;5107826;28;19968;-11
2022/10/26 10:20:05;;;;;;;;;;;21.10;95.40;;;;;;5107799;28;19911;-11
2022/10/26 10:22:31;;;;;;;;;;;21.00;95.50;;;;;;5102436;28;19908;-11
2022/10/26 10:25:05;;;;;;;;;;;21.10;95.60;;;;;;5105271;28;19918;-11
2022/10/26 10:27:32;;;;;;;;;;;21.10;95.60;;;;;;5104522;28;19912;-11
2022/10/26 10:29:58;;;;;;;;;;;21.10;95.70;;;;;;5104508;28;19977;-11
2022/10/26 10:32:30;;;;;;;;;;;21.10;95.80;;;;;;5104160;28;19916;-11
2022/10/26 10:34:57;;;;;;;;;;;21.00;96.00;;;;;;5099195;28;19908;-11
2022/10/26 10:37:22;;;;;;;;;;;21.00;96.50;;;;;;5116140;28;19961;-11
2022/10/26 10:39:55;;;;;;;;;;;20.90;96.40;;;;;;5105427;28;19912;-11
2022/10/26 10:42:25;;;;;;;;;;;20.90;96.50;;;;;;5077877;28;19908;-11
2022/10/26 10:44:54;;;;;;;;;;;20.90;96.60;;;;;;5095791;28;19908;-11
2022/10/26 10:47:22;;;;;;;;;;;20.90;96.70;;;;;;5112189;28;19907;-11
2022/10/26 10:50:15;;;;;;;;;;;20.90;96.80;;;;;;5116054;28;20367;-11
2022/10/26 10:52:41;;;;;;;;;;;20.90;96.80;;;;;;5116772;28;19907;-11
2022/10/26 10:55:18;;;;;;;;;;;20.90;96.90;;;;;;5117161;28;19980;-11
2022/10/26 10:57:50;;;;;;;;;;;20.90;96.90;;;;;;5115552;28;19915;-11
2022/10/26 11:00:16;;;;;;;;;;;20.90;97.00;;;;;;5115476;28;19924;-11
2022/10/26 11:02:41;;;;;;;;;;;20.90;97.10;;;;;;5109188;28;20007;-11
2022/10/26 11:05:13;;;;;;;;;;;20.90;97.10;;;;;;5094335;28;19994;-11
2022/10/26 11:07:45;;;;;;;;;;;20.90;97.20;;;;;;5094253;28;19913;-11
2022/10/26 11:10:16;;;;;;;;;;;20.90;97.20;;;;;;5093303;28;20341;-11
2022/10/26 11:12:48;;;;;;;;;;;20.90;97.20;;;;;;5093157;28;19957;-11
2022/10/26 11:15:18;;;;;;;;;;;21.00;97.30;;;;;;5093877;28;20285;-11
2022/10/26 11:18:03;;;;;;;;;;;21.00;97.40;;;;;;5094672;28;19916;-11
2022/10/26 11:20:30;;;;;;;;;;;21.00;97.40;;;;;;5098393;28;20034;-11
2022/10/26 11:23:02;;;;;;;;;;;21.00;97.50;;;;;;5097858;28;19958;-11
2022/10/26 11:25:32;;;;;;;;;;;20.90;97.60;;;;;;5115471;28;19912;-11
2022/10/26 11:28:03;;;;;;;;;;;21.00;97.60;;;;;;5101717;28;19919;-11
2022/10/26 11:30:29;;;;;;;;;;;21.00;97.60;;;;;;5105658;28;19939;-12
2022/10/26 11:32:59;;;;;;;;;;;21.00;97.70;;;;;;5111782;28;19912;-12
2022/10/26 11:35:27;;;;;;;;;;;21.00;97.70;;;;;;5108021;28;19992;-12
2022/10/26 11:37:56;;;;;;;;;;;21.00;97.70;;;;;;5104215;28;19986;-12
2022/10/26 11:40:28;;;;;;;;;;;20.90;97.70;;;;;;5105333;28;19973;-12
2022/10/26 11:43:13;;;;;;;;;;;21.00;97.80;;;;;;5106859;28;19998;-13
2022/10/26 11:45:41;;;;;;;;;;;20.90;97.80;;;;;;5103657;28;19908;-12
2022/10/26 11:48:27;;;;;;;;;;;20.90;97.90;;;;;;5103609;28;19950;-12
2022/10/26 11:50:54;;;;;;;;;;;21.00;97.90;;;;;;5105327;28;19909;-12
2022/10/26 11:53:22;;;;;;;;;;;20.90;97.90;;;;;;5101492;28;20463;-12
2022/10/26 11:55:53;;;;;;;;;;;21.00;98.10;;;;;;5112828;28;20334;-12
2022/10/26 11:58:21;;;;;;;;;;;20.90;98.10;;;;;;5098044;28;19908;-12
2022/10/26 12:00:51;;;;;;;;;;;21.00;98.20;;;;;;5098192;28;19955;-12
2022/10/26 12:03:25;;;;;;;;;;;21.00;98.10;;;;;;5098976;28;19908;-12
2022/10/26 12:05:51;;;;;;;;;;;21.00;98.10;;;;;;5098721;28;19944;-12
2022/10/26 12:08:26;;;;;;;;;;;21.00;98.20;;;;;;5099304;28;19954;-12
2022/10/26 12:11:18;;;;;;;;;;;20.90;98.20;;;;;;5099055;28;20281;-12
2022/10/26 12:13:47;;;;;;;;;;;21.00;98.20;;;;;;5094352;28;19919;-12
2022/10/26 12:16:50;;;;;;;;;;;21.00;98.30;;;;;;5098363;28;19919;-12
2022/10/26 12:19:25;;;;;;;;;;;20.90;98.30;;;;;;5036788;28;19963;-12
2022/10/26 12:21:51;;;;;;;;;;;21.00;98.40;;;;;;5087882;28;20484;-12
2022/10/26 12:24:23;;;;;;;;;;;21.00;98.40;;;;;;5087220;28;20205;-12
2022/10/26 12:26:55;;;;;;;;;;;21.00;98.60;;;;;;5088530;28;20007;-12
2022/10/26 12:29:33;;;;;;;;;;;21.00;98.70;;;;;;5087210;28;20261;-12
2022/10/26 12:31:59;;;;;;;;;;;20.90;98.60;;;;;;5086153;28;19916;-12
2022/10/26 12:34:30;;;;;;;;;;;21.00;98.70;;;;;;5086875;28;19918;-12
2022/10/26 12:36:56;;;;;;;;;;;20.90;98.80;;;;;;5102656;28;19908;-12
2022/10/26 12:39:36;;;;;;;;;;;20.90;98.90;;;;;;5088121;28;19934;-12
2022/10/26 12:42:05;;;;;;;;;;;21.00;98.90;;;;;;5091625;28;19981;-12
2022/10/26 12:44:40;;;;;;;;;;;21.00;98.90;;;;;;5110142;28;19907;-12
2022/10/26 12:47:35;;;;;;;;;;;20.90;99.00;;;;;;5117728;28;19907;-12
2022/10/26 12:50:07;;;;;;;;;;;21.00;99.10;;;;;;5112169;28;19915;-12
2022/10/26 12:52:42;;;;;;;;;;;21.00;99.20;;;;;;5106695;28;20015;-12
2022/10/26 12:55:11;;;;;;;;;;;20.90;99.20;;;;;;5109133;28;20059;-12
2022/10/26 12:57:49;;;;;;;;;;;20.90;99.30;;;;;;5118117;28;19914;-12
2022/10/26 13:00:15;;;;;;;;;;;20.90;99.40;;;;;;5117484;28;20375;-12
2022/10/26 13:02:44;;;;;;;;;;;20.90;99.50;;;;;;5117574;28;19918;-12
2022/10/26 13:05:16;;;;;;;;;;;20.90;99.50;;;;;;5117797;28;19916;-12
2022/10/26 13:07:41;;;;;;;;;;;20.90;99.60;;;;;;5118557;28;19950;-12
2022/10/26 13:10:10;;;;;;;;;;;20.90;99.50;;;;;;5118258;28;19951;-12
2022/10/26 13:12:44;;;;;;;;;;;21.00;99.60;;;;;;5115194;28;19918;-12
2022/10/26 13:15:23;;;;;;;;;;;20.90;99.60;;;;;;5116168;28;19962;-12
2022/10/26 13:18:08;;;;;;;;;;;20.90;99.70;;;;;;5116697;28;19914;-12
2022/10/26 13:21:00;;;;;;;;;;;20.90;99.70;;;;;;5117069;28;19926;-12
2022/10/26 13:23:26;;;;;;;;;;;20.90;99.80;;;;;;5108835;28;20314;-12
2022/10/26 13:26:04;;;;;;;;;;;20.90;99.90;;;;;;5116560;28;20238;-12
2022/10/26 13:28:32;;;;;;;;;;;20.90;99.90;;;;;;5117972;28;19908;-12
2022/10/26 13:30:58;;;;;;;;;;;20.90;99.90;;;;;;5117211;28;19926;-12
2022/10/26 13:33:30;;;;;;;;;;;20.90;99.90;;;;;;5115984;28;19908;-12
2022/10/26 13:35:57;;;;;;;;;;;20.90;99.90;;;;;;5116501;28;19907;-12
2022/10/26 13:38:29;;;;;;;;;;;20.90;99.90;;;;;;5116446;28;20065;-12
2022/10/26 13:40:59;;;;;;;;;;;20.90;99.90;;;;;;5116076;28;19977;-12
2022/10/26 13:43:26;;;;;;;;;;;20.90;99.90;;;;;;5116711;28;19998;-12
2022/10/26 13:45:53;;;;;;;;;;;20.90;99.90;;;;;;5115904;28;19908;-12
2022/10/26 13:48:25;;;;;;;;;;;20.90;99.90;;;;;;5116745;28;19908;-12
2022/10/26 13:50:52;;;;;;;;;;;20.90;99.90;;;;;;5116631;28;19918;-12
2022/10/26 13:53:18;;;;;;;;;;;20.90;99.90;;;;;;5116925;28;19917;-12
2022/10/26 13:55:43;;;;;;;;;;;20.90;99.90;;;;;;5115821;28;19914;-12
2022/10/26 13:58:21;;;;;;;;;;;20.90;99.90;;;;;;5116306;28;19930;-12
2022/10/26 14:01:03;;;;;;;;;;;20.90;99.90;;;;;;5106139;22;19959;-12
2022/10/26 14:03:29;;;;;;;;;;;20.90;99.90;;;;;;5105944;28;19920;-12
2022/10/26 14:05:55;;;;;;;;;;;20.90;99.90;;;;;;5090648;28;20377;-12
2022/10/26 14:08:20;;;;;;;;;;;20.90;99.90;;;;;;5089862;28;20200;-12
2022/10/26 14:10:59;;;;;;;;;;;20.90;99.90;;;;;;5088509;28;19920;-13
2022/10/26 14:13:26;;;;;;;;;;;20.90;99.90;;;;;;5084076;28;19908;-12
2022/10/26 14:15:56;;;;;;;;;;;20.90;99.90;;;;;;5086157;28;19940;-12
2022/10/26 14:18:26;;;;;;;;;;;20.90;99.90;;;;;;5086426;28;20261;-12
2022/10/26 14:21:05;;;;;;;;;;;20.90;99.90;;;;;;5087348;28;20295;-12
2022/10/26 14:23:35;;;;;;;;;;;20.90;99.90;;;;;;5087552;28;19969;-12
2022/10/26 14:26:04;;;;;;;;;;;20.90;99.90;;;;;;5086573;28;20272;-12
2022/10/26 14:28:31;;;;;;;;;;;20.90;99.90;;;;;;5086716;28;20289;-12
2022/10/26 14:31:11;;;;;;;;;;;20.90;99.90;;;;;;5084572;28;19916;-12
2022/10/26 14:33:37;;;;;;;;;;;20.90;99.90;;;;;;5085041;28;20189;-12
2022/10/26 14:36:02;;;;;;;;;;;20.90;99.90;;;;;;5085559;28;20280;-12
2022/10/26 14:38:31;;;;;;;;;;;20.90;99.90;;;;;;5085892;28;20193;-12